sensor_id;sensor_type;location;lat;lon;timestamp;pressure;altitude;pressure_sealevel;temperature;humidity
54978;BME280;40873;47.522;19.106;2024-02-16T06:45:38;101153.91;;;4.20;100.00
54978;BME280;40873;47.522;19.106;2024-02-16T06:48:08;101156.41;;;4.25;100.00
54978;BME280;40873;47.522;19.106;2024-02-16T06:50:35;101154.53;;;4.31;100.00
54978;BME280;40873;47.522;19.106;2024-02-16T06:53:03;101158.00;;;4.32;100.00
54978;BME280;40873;47.522;19.106;2024-02-16T06:55:30;101162.19;;;4.39;100.00
54978;BME280;40873;47.522;19.106;2024-02-16T06:57:57;101169.09;;;4.42;100.00
54978;BME280;40873;47.522;19.106;2024-02-16T07:00:27;101169.78;;;4.50;100.00
54978;BME280;40873;47.522;19.106;2024-02-16T07:02:57;101171.44;;;4.54;100.00
54978;BME280;40873;47.522;19.106;2024-02-16T07:05:24;101169.47;;;4.63;100.00
54978;BME280;40873;47.522;19.106;2024-02-16T07:07:53;101181.47;;;4.74;100.00
54978;BME280;40873;47.522;19.106;2024-02-16T07:10:20;101183.91;;;4.81;100.00
54978;BME280;40873;47.522;19.106;2024-02-16T07:12:48;101178.53;;;4.87;100.00
54978;BME280;40873;47.522;19.106;2024-02-16T07:15:18;101183.56;;;4.95;100.00
54978;BME280;40873;47.522;19.106;2024-02-16T07:17:45;101182.59;;;4.99;100.00
54978;BME280;40873;47.522;19.106;2024-02-16T07:20:15;101179.78;;;5.07;100.00
54978;BME280;40873;47.522;19.106;2024-02-16T07:22:43;101173.53;;;5.12;100.00
54978;BME280;40873;47.522;19.106;2024-02-16T07:25:12;101181.34;;;5.15;100.00
54978;BME280;40873;47.522;19.106;2024-02-16T07:27:39;101178.63;;;5.18;100.00
54978;BME280;40873;47.522;19.106;2024-02-16T07:30:11;101191.56;;;5.25;100.00
54978;BME280;40873;47.522;19.106;2024-02-16T07:32:52;101175.63;;;5.34;100.00
54978;BME280;40873;47.522;19.106;2024-02-16T07:35:24;101176.28;;;5.42;100.00
54978;BME280;40873;47.522;19.106;2024-02-16T07:37:52;101181.34;;;5.49;100.00
54978;BME280;40873;47.522;19.106;2024-02-16T07:40:20;101176.88;;;5.53;100.00
54978;BME280;40873;47.522;19.106;2024-02-16T07:42:47;101181.03;;;5.60;100.00
54978;BME280;40873;47.522;19.106;2024-02-16T07:45:18;101176.41;;;5.70;100.00
54978;BME280;40873;47.522;19.106;2024-02-16T07:47:46;101179.59;;;5.81;100.00
54978;BME280;40873;47.522;19.106;2024-02-16T07:50:13;101171.50;;;5.92;100.00
54978;BME280;40873;47.522;19.106;2024-02-16T07:52:40;101177.38;;;6.00;100.00
54978;BME280;40873;47.522;19.106;2024-02-16T07:55:09;101179.53;;;6.15;100.00
54978;BME280;40873;47.522;19.106;2024-02-16T07:57:38;101180.84;;;6.30;100.00
54978;BME280;40873;47.522;19.106;2024-02-16T08:00:06;101176.13;;;6.43;100.00
54978;BME280;40873;47.522;19.106;2024-02-16T08:02:36;101173.16;;;6.53;100.00
54978;BME280;40873;47.522;19.106;2024-02-16T08:05:05;101171.59;;;6.76;100.00
54978;BME280;40873;47.522;19.106;2024-02-16T08:07:41;101160.69;;;6.90;100.00
54978;BME280;40873;47.522;19.106;2024-02-16T08:10:11;101169.09;;;6.99;100.00
54978;BME280;40873;47.522;19.106;2024-02-16T08:12:39;101172.06;;;7.15;100.00
54978;BME280;40873;47.522;19.106;2024-02-16T08:15:08;101176.91;;;7.27;100.00
54978;BME280;40873;47.522;19.106;2024-02-16T08:17:41;101177.03;;;7.49;100.00
54978;BME280;40873;47.522;19.106;2024-02-16T08:20:10;101174.78;;;7.63;100.00
54978;BME280;40873;47.522;19.106;2024-02-16T08:22:38;101173.50;;;7.75;100.00
54978;BME280;40873;47.522;19.106;2024-02-16T08:25:06;101172.03;;;7.91;100.00
54978;BME280;40873;47.522;19.106;2024-02-16T08:27:33;101175.00;;;8.07;100.00
54978;BME280;40873;47.522;19.106;2024-02-16T08:30:00;101173.81;;;8.39;100.00
54978;BME280;40873;47.522;19.106;2024-02-16T08:32:32;101180.69;;;8.65;100.00
54978;BME280;40873;47.522;19.106;2024-02-16T08:34:59;101169.56;;;8.81;100.00
54978;BME280;40873;47.522;19.106;2024-02-16T08:37:26;101175.91;;;8.97;100.00
54978;BME280;40873;47.522;19.106;2024-02-16T08:39:53;101175.56;;;9.06;100.00
54978;BME280;40873;47.522;19.106;2024-02-16T08:42:21;101177.81;;;9.15;100.00
54978;BME280;40873;47.522;19.106;2024-02-16T08:44:50;101181.56;;;9.30;100.00
54978;BME280;40873;47.522;19.106;2024-02-16T08:47:21;101182.44;;;9.51;100.00
54978;BME280;40873;47.522;19.106;2024-02-16T08:49:48;101183.38;;;9.70;100.00
54978;BME280;40873;47.522;19.106;2024-02-16T08:52:16;101185.41;;;9.84;100.00
54978;BME280;40873;47.522;19.106;2024-02-16T08:54:43;101178.75;;;9.96;100.00
54978;BME280;40873;47.522;19.106;2024-02-16T08:57:11;101187.75;;;10.10;100.00
54978;BME280;40873;47.522;19.106;2024-02-16T08:59:38;101177.31;;;10.28;96.96
54978;BME280;40873;47.522;19.106;2024-02-16T09:02:06;101182.44;;;10.50;93.26
54978;BME280;40873;47.522;19.106;2024-02-16T09:04:36;101189.50;;;10.49;85.19
54978;BME280;40873;47.522;19.106;2024-02-16T09:07:04;101188.66;;;10.67;84.93
54978;BME280;40873;47.522;19.106;2024-02-16T09:09:31;101187.81;;;10.84;83.95
54978;BME280;40873;47.522;19.106;2024-02-16T09:12:01;101186.84;;;10.87;80.17
54978;BME280;40873;47.522;19.106;2024-02-16T09:14:28;101182.72;;;10.98;80.96
54978;BME280;40873;47.522;19.106;2024-02-16T09:16:56;101188.91;;;10.99;78.49
54978;BME280;40873;47.522;19.106;2024-02-16T09:19:23;101189.56;;;10.85;77.15
54978;BME280;40873;47.522;19.106;2024-02-16T09:21:51;101187.03;;;11.18;75.39
54978;BME280;40873;47.522;19.106;2024-02-16T09:24:24;101186.69;;;11.43;75.38
54978;BME280;40873;47.522;19.106;2024-02-16T09:26:57;101192.22;;;11.03;76.32
54978;BME280;40873;47.522;19.106;2024-02-16T09:29:24;101191.81;;;10.93;74.67
54978;BME280;40873;47.522;19.106;2024-02-16T09:31:51;101190.41;;;11.22;74.82
54978;BME280;40873;47.522;19.106;2024-02-16T09:34:19;101189.38;;;11.24;74.25
54978;BME280;40873;47.522;19.106;2024-02-16T09:36:46;101189.47;;;11.40;74.08
54978;BME280;40873;47.522;19.106;2024-02-16T09:39:13;101197.63;;;11.70;71.91
54978;BME280;40873;47.522;19.106;2024-02-16T09:41:47;101193.75;;;11.77;71.75
54978;BME280;40873;47.522;19.106;2024-02-16T09:44:18;101195.91;;;12.04;64.21
54978;BME280;40873;47.522;19.106;2024-02-16T09:46:52;101197.94;;;12.32;61.95
54978;BME280;40873;47.522;19.106;2024-02-16T09:49:20;101194.53;;;12.46;60.64
54978;BME280;40873;47.522;19.106;2024-02-16T09:52:03;101198.75;;;12.66;61.52
54978;BME280;40873;47.522;19.106;2024-02-16T09:54:37;101193.50;;;12.64;60.62
54978;BME280;40873;47.522;19.106;2024-02-16T09:57:06;101195.47;;;12.76;62.08
54978;BME280;40873;47.522;19.106;2024-02-16T09:59:33;101193.47;;;13.11;60.80
54978;BME280;40873;47.522;19.106;2024-02-16T10:02:03;101190.72;;;13.13;59.38
54978;BME280;40873;47.522;19.106;2024-02-16T10:04:33;101192.03;;;13.06;59.81
54978;BME280;40873;47.522;19.106;2024-02-16T10:07:04;101194.56;;;13.39;59.32
54978;BME280;40873;47.522;19.106;2024-02-16T10:09:39;101190.84;;;12.32;60.38
54978;BME280;40873;47.522;19.106;2024-02-16T10:12:09;101180.06;;;12.20;60.78
54978;BME280;40873;47.522;19.106;2024-02-16T10:14:40;101189.25;;;12.61;60.85
54978;BME280;40873;47.522;19.106;2024-02-16T10:17:16;101184.06;;;13.06;62.29
54978;BME280;40873;47.522;19.106;2024-02-16T10:19:58;101184.75;;;13.55;60.81
54978;BME280;40873;47.522;19.106;2024-02-16T10:22:29;101179.31;;;13.87;57.72
54978;BME280;40873;47.522;19.106;2024-02-16T10:25:06;101181.97;;;13.73;56.77
54978;BME280;40873;47.522;19.106;2024-02-16T10:27:38;101176.84;;;13.84;57.05
54978;BME280;40873;47.522;19.106;2024-02-16T10:30:07;101166.69;;;13.62;57.29
54978;BME280;40873;47.522;19.106;2024-02-16T10:32:38;101170.28;;;13.75;55.70
54978;BME280;40873;47.522;19.106;2024-02-16T10:35:06;101165.41;;;14.12;54.74
54978;BME280;40873;47.522;19.106;2024-02-16T10:37:36;101162.84;;;14.10;54.37
54978;BME280;40873;47.522;19.106;2024-02-16T10:40:04;101158.84;;;13.89;55.93
54978;BME280;40873;47.522;19.106;2024-02-16T10:42:34;101155.81;;;14.23;55.12
54978;BME280;40873;47.522;19.106;2024-02-16T10:45:02;101155.50;;;14.57;53.95
54978;BME280;40873;47.522;19.106;2024-02-16T10:47:31;101153.22;;;14.65;53.63
54978;BME280;40873;47.522;19.106;2024-02-16T10:50:01;101150.28;;;14.96;52.90
54978;BME280;40873;47.522;19.106;2024-02-16T10:52:31;101139.38;;;14.60;53.59
54978;BME280;40873;47.522;19.106;2024-02-16T10:54:59;101130.75;;;14.56;53.07
54978;BME280;40873;47.522;19.106;2024-02-16T10:57:30;101129.13;;;14.68;53.35
54978;BME280;40873;47.522;19.106;2024-02-16T10:59:59;101129.09;;;15.34;52.44
54978;BME280;40873;47.522;19.106;2024-02-16T11:02:27;101124.47;;;15.11;52.13
54978;BME280;40873;47.522;19.106;2024-02-16T11:04:56;101124.50;;;15.36;51.63
54978;BME280;40873;47.522;19.106;2024-02-16T11:07:24;101117.13;;;15.67;51.53
54978;BME280;40873;47.522;19.106;2024-02-16T11:09:52;101114.00;;;15.99;50.33
54978;BME280;40873;47.522;19.106;2024-02-16T11:12:20;101110.00;;;15.93;50.47
54978;BME280;40873;47.522;19.106;2024-02-16T11:14:50;101109.88;;;16.07;50.44
54978;BME280;40873;47.522;19.106;2024-02-16T11:17:23;101101.13;;;16.05;51.12
54978;BME280;40873;47.522;19.106;2024-02-16T11:19:54;101105.50;;;16.06;50.75
54978;BME280;40873;47.522;19.106;2024-02-16T11:22:26;101103.91;;;15.78;50.52
54978;BME280;40873;47.522;19.106;2024-02-16T11:24:55;101101.03;;;16.07;50.37
54978;BME280;40873;47.522;19.106;2024-02-16T11:27:31;101105.03;;;16.12;49.51
54978;BME280;40873;47.522;19.106;2024-02-16T11:30:01;101101.66;;;16.10;50.14
54978;BME280;40873;47.522;19.106;2024-02-16T11:32:34;101101.47;;;16.37;49.74
54978;BME280;40873;47.522;19.106;2024-02-16T11:35:06;101092.94;;;16.69;48.86
54978;BME280;40873;47.522;19.106;2024-02-16T11:37:37;101085.78;;;16.45;49.37
54978;BME280;40873;47.522;19.106;2024-02-16T11:40:07;101087.44;;;16.35;49.41
54978;BME280;40873;47.522;19.106;2024-02-16T11:42:41;101083.47;;;15.92;50.44
54978;BME280;40873;47.522;19.106;2024-02-16T11:45:13;101076.25;;;16.30;50.21
54978;BME280;40873;47.522;19.106;2024-02-16T11:47:43;101080.94;;;16.27;49.62
54978;BME280;40873;47.522;19.106;2024-02-16T11:50:10;101070.41;;;15.88;50.68
54978;BME280;40873;47.522;19.106;2024-02-16T11:52:41;101081.38;;;15.71;50.95
54978;BME280;40873;47.522;19.106;2024-02-16T11:55:09;101074.06;;;14.97;52.52
54978;BME280;40873;47.522;19.106;2024-02-16T11:57:44;101078.34;;;15.50;52.55
54978;BME280;40873;47.522;19.106;2024-02-16T12:00:15;101064.53;;;15.83;51.81
54978;BME280;40873;47.522;19.106;2024-02-16T12:02:43;101067.63;;;15.90;51.26
54978;BME280;40873;47.522;19.106;2024-02-16T12:05:13;101059.69;;;16.14;51.13
54978;BME280;40873;47.522;19.106;2024-02-16T12:07:45;101062.72;;;15.84;51.37
54978;BME280;40873;47.522;19.106;2024-02-16T12:10:14;101058.59;;;15.54;52.92
54978;BME280;40873;47.522;19.106;2024-02-16T12:12:41;101065.59;;;15.17;53.06
54978;BME280;40873;47.522;19.106;2024-02-16T12:15:13;101057.13;;;14.85;54.19
54978;BME280;40873;47.522;19.106;2024-02-16T12:17:46;101061.94;;;14.39;55.88
54978;BME280;40873;47.522;19.106;2024-02-16T12:20:14;101051.88;;;14.03;56.68
54978;BME280;40873;47.522;19.106;2024-02-16T12:22:42;101055.72;;;13.70;56.80
54978;BME280;40873;47.522;19.106;2024-02-16T12:25:09;101050.41;;;13.70;57.36
54978;BME280;40873;47.522;19.106;2024-02-16T12:27:39;101054.09;;;13.39;57.75
54978;BME280;40873;47.522;19.106;2024-02-16T12:30:07;101054.50;;;13.17;58.33
54978;BME280;40873;47.522;19.106;2024-02-16T12:32:34;101050.56;;;13.24;58.38
54978;BME280;40873;47.522;19.106;2024-02-16T12:35:01;101046.13;;;13.25;59.24
54978;BME280;40873;47.522;19.106;2024-02-16T12:37:30;101046.31;;;13.22;59.32
54978;BME280;40873;47.522;19.106;2024-02-16T12:39:57;101040.72;;;13.26;60.44
54978;BME280;40873;47.522;19.106;2024-02-16T12:42:24;101042.16;;;13.32;59.74
54978;BME280;40873;47.522;19.106;2024-02-16T12:44:51;101029.97;;;13.13;59.13
54978;BME280;40873;47.522;19.106;2024-02-16T12:47:18;101040.78;;;13.10;59.45
54978;BME280;40873;47.522;19.106;2024-02-16T12:49:46;101035.72;;;13.06;59.88
54978;BME280;40873;47.522;19.106;2024-02-16T12:52:20;101030.03;;;12.98;60.40
54978;BME280;40873;47.522;19.106;2024-02-16T12:54:49;101031.00;;;12.97;60.25
54978;BME280;40873;47.522;19.106;2024-02-16T12:57:16;101027.19;;;12.86;60.26
54978;BME280;40873;47.522;19.106;2024-02-16T12:59:43;101034.28;;;13.00;59.94
54978;BME280;40873;47.522;19.106;2024-02-16T13:02:11;101035.34;;;12.98;60.75
54978;BME280;40873;47.522;19.106;2024-02-16T13:04:38;101019.69;;;12.79;60.07
54978;BME280;40873;47.522;19.106;2024-02-16T13:07:06;101021.94;;;12.71;60.86
54978;BME280;40873;47.522;19.106;2024-02-16T13:09:35;101022.88;;;12.70;61.81
54978;BME280;40873;47.522;19.106;2024-02-16T13:12:03;101015.19;;;12.65;62.15
54978;BME280;40873;47.522;19.106;2024-02-16T13:14:33;101012.53;;;12.81;61.61
54978;BME280;40873;47.522;19.106;2024-02-16T13:17:04;101004.94;;;12.75;61.89
54978;BME280;40873;47.522;19.106;2024-02-16T13:19:33;101003.63;;;12.82;61.71
54978;BME280;40873;47.522;19.106;2024-02-16T13:22:01;100997.09;;;12.73;61.16
54978;BME280;40873;47.522;19.106;2024-02-16T13:24:28;100998.88;;;12.73;62.32
54978;BME280;40873;47.522;19.106;2024-02-16T13:26:56;100987.34;;;12.74;61.87
54978;BME280;40873;47.522;19.106;2024-02-16T13:29:29;100995.09;;;12.77;62.15
54978;BME280;40873;47.522;19.106;2024-02-16T13:31:57;101001.34;;;12.76;62.28
54978;BME280;40873;47.522;19.106;2024-02-16T13:34:24;101005.38;;;12.67;62.23
54978;BME280;40873;47.522;19.106;2024-02-16T13:36:53;100998.75;;;12.60;62.63
54978;BME280;40873;47.522;19.106;2024-02-16T13:39:23;100998.91;;;12.57;63.48
54978;BME280;40873;47.522;19.106;2024-02-16T13:41:50;100992.88;;;12.55;63.23
54978;BME280;40873;47.522;19.106;2024-02-16T13:44:18;100995.31;;;12.58;64.21
54978;BME280;40873;47.522;19.106;2024-02-16T13:46:46;100992.75;;;12.56;64.09
54978;BME280;40873;47.522;19.106;2024-02-16T13:49:14;100992.66;;;12.58;64.26
54978;BME280;40873;47.522;19.106;2024-02-16T13:51:42;100991.63;;;12.46;64.68
54978;BME280;40873;47.522;19.106;2024-02-16T13:54:09;100997.56;;;12.50;65.00
54978;BME280;40873;47.522;19.106;2024-02-16T13:56:39;100994.56;;;12.56;64.17
54978;BME280;40873;47.522;19.106;2024-02-16T13:59:13;100994.31;;;12.60;63.83
54978;BME280;40873;47.522;19.106;2024-02-16T14:01:43;100994.13;;;12.63;63.38
54978;BME280;40873;47.522;19.106;2024-02-16T14:04:13;100990.94;;;12.73;63.59
54978;BME280;40873;47.522;19.106;2024-02-16T14:06:44;100993.94;;;12.67;63.79
54978;BME280;40873;47.522;19.106;2024-02-16T14:09:11;100992.59;;;12.59;64.20
54978;BME280;40873;47.522;19.106;2024-02-16T14:11:56;100992.88;;;12.55;65.84
54978;BME280;40873;47.522;19.106;2024-02-16T14:14:25;100982.03;;;12.44;65.75
54978;BME280;40873;47.522;19.106;2024-02-16T14:17:04;100988.00;;;12.47;65.05
54978;BME280;40873;47.522;19.106;2024-02-16T14:19:31;100989.00;;;12.60;64.18
54978;BME280;40873;47.522;19.106;2024-02-16T14:22:01;100987.03;;;12.64;64.93
54978;BME280;40873;47.522;19.106;2024-02-16T14:24:28;100990.72;;;12.61;65.53
54978;BME280;40873;47.522;19.106;2024-02-16T14:26:55;100989.38;;;12.54;64.54
54978;BME280;40873;47.522;19.106;2024-02-16T14:29:22;100994.06;;;12.49;65.38
54978;BME280;40873;47.522;19.106;2024-02-16T14:31:51;100984.97;;;12.39;65.76
54978;BME280;40873;47.522;19.106;2024-02-16T14:34:19;100988.81;;;12.33;66.87
54978;BME280;40873;47.522;19.106;2024-02-16T14:36:47;100989.25;;;12.26;66.90
54978;BME280;40873;47.522;19.106;2024-02-16T14:39:15;100991.06;;;12.25;67.36
54978;BME280;40873;47.522;19.106;2024-02-16T14:41:43;100988.97;;;12.30;67.53
54978;BME280;40873;47.522;19.106;2024-02-16T14:44:10;100987.91;;;12.19;67.13
54978;BME280;40873;47.522;19.106;2024-02-16T14:46:38;100988.16;;;12.14;66.66
54978;BME280;40873;47.522;19.106;2024-02-16T14:49:07;100987.06;;;12.18;67.55
54978;BME280;40873;47.522;19.106;2024-02-16T14:51:40;100975.63;;;12.18;67.37
54978;BME280;40873;47.522;19.106;2024-02-16T14:54:08;100988.16;;;12.14;67.18
54978;BME280;40873;47.522;19.106;2024-02-16T14:56:36;100982.94;;;12.13;67.59
54978;BME280;40873;47.522;19.106;2024-02-16T14:59:03;100989.28;;;12.10;67.71
54978;BME280;40873;47.522;19.106;2024-02-16T15:01:32;100987.88;;;12.03;67.43
54978;BME280;40873;47.522;19.106;2024-02-16T15:04:01;100994.31;;;11.99;68.21
54978;BME280;40873;47.522;19.106;2024-02-16T15:06:29;100996.25;;;11.95;68.95
54978;BME280;40873;47.522;19.106;2024-02-16T15:08:59;100984.31;;;11.88;69.03
54978;BME280;40873;47.522;19.106;2024-02-16T15:11:27;100988.94;;;11.85;69.66
54978;BME280;40873;47.522;19.106;2024-02-16T15:13:54;100985.66;;;11.79;69.98
54978;BME280;40873;47.522;19.106;2024-02-16T15:16:21;100973.47;;;11.77;69.93
54978;BME280;40873;47.522;19.106;2024-02-16T15:18:51;100976.25;;;11.74;69.96
54978;BME280;40873;47.522;19.106;2024-02-16T15:21:18;100979.69;;;11.76;70.55
54978;BME280;40873;47.522;19.106;2024-02-16T15:23:46;100975.59;;;11.70;70.86
54978;BME280;40873;47.522;19.106;2024-02-16T15:26:13;100972.69;;;11.59;71.08
54978;BME280;40873;47.522;19.106;2024-02-16T15:28:43;100983.53;;;11.55;71.42
54978;BME280;40873;47.522;19.106;2024-02-16T15:31:13;100989.91;;;11.50;71.69
54978;BME280;40873;47.522;19.106;2024-02-16T15:33:41;100982.47;;;11.41;71.95
54978;BME280;40873;47.522;19.106;2024-02-16T15:36:08;100984.41;;;11.38;73.02
54978;BME280;40873;47.522;19.106;2024-02-16T15:38:36;100984.91;;;11.29;73.21
54978;BME280;40873;47.522;19.106;2024-02-16T15:41:06;100990.66;;;11.19;73.99
54978;BME280;40873;47.522;19.106;2024-02-16T15:43:37;100994.56;;;11.12;74.35
54978;BME280;40873;47.522;19.106;2024-02-16T15:46:07;100986.03;;;11.07;75.00
54978;BME280;40873;47.522;19.106;2024-02-16T15:48:36;100987.84;;;11.07;74.69
54978;BME280;40873;47.522;19.106;2024-02-16T15:51:04;100994.38;;;11.00;75.41
54978;BME280;40873;47.522;19.106;2024-02-16T15:53:34;100992.97;;;10.92;75.94
54978;BME280;40873;47.522;19.106;2024-02-16T15:56:01;100993.28;;;10.86;76.08
54978;BME280;40873;47.522;19.106;2024-02-16T15:58:30;100988.22;;;10.82;76.68
54978;BME280;40873;47.522;19.106;2024-02-16T16:00:58;100995.69;;;10.74;77.00
54978;BME280;40873;47.522;19.106;2024-02-16T16:03:26;100998.47;;;10.70;77.70
54978;BME280;40873;47.522;19.106;2024-02-16T16:05:54;100999.56;;;10.66;77.61
54978;BME280;40873;47.522;19.106;2024-02-16T16:08:21;101001.56;;;10.61;77.78
54978;BME280;40873;47.522;19.106;2024-02-16T16:10:51;101010.66;;;10.56;77.53
54978;BME280;40873;47.522;19.106;2024-02-16T16:13:21;101007.78;;;10.60;77.29
54978;BME280;40873;47.522;19.106;2024-02-16T16:15:51;101010.72;;;10.54;77.14
54978;BME280;40873;47.522;19.106;2024-02-16T16:18:18;101015.75;;;10.41;78.18
54978;BME280;40873;47.522;19.106;2024-02-16T16:20:48;101018.25;;;10.45;77.92
54978;BME280;40873;47.522;19.106;2024-02-16T16:23:15;101017.53;;;10.41;77.99
54978;BME280;40873;47.522;19.106;2024-02-16T16:25:45;101023.28;;;10.32;78.29
54978;BME280;40873;47.522;19.106;2024-02-16T16:28:15;101027.22;;;10.23;79.15
54978;BME280;40873;47.522;19.106;2024-02-16T16:30:42;101031.03;;;10.16;79.23
54978;BME280;40873;47.522;19.106;2024-02-16T16:33:09;101029.47;;;10.12;79.81
54978;BME280;40873;47.522;19.106;2024-02-16T16:35:37;101038.31;;;10.11;79.93
54978;BME280;40873;47.522;19.106;2024-02-16T16:38:05;101037.75;;;10.04;80.04
54978;BME280;40873;47.522;19.106;2024-02-16T16:40:36;101034.34;;;10.02;80.05
54978;BME280;40873;47.522;19.106;2024-02-16T16:43:04;101028.50;;;9.96;80.65
54978;BME280;40873;47.522;19.106;2024-02-16T16:45:34;101029.56;;;9.92;81.05
54978;BME280;40873;47.522;19.106;2024-02-16T16:48:06;101032.09;;;9.93;80.98
54978;BME280;40873;47.522;19.106;2024-02-16T16:50:37;101024.28;;;9.92;80.95
54978;BME280;40873;47.522;19.106;2024-02-16T16:53:06;101035.09;;;9.85;80.91
54978;BME280;40873;47.522;19.106;2024-02-16T16:55:34;101036.22;;;9.80;81.79
54978;BME280;40873;47.522;19.106;2024-02-16T16:58:01;101037.44;;;9.73;82.28
54978;BME280;40873;47.522;19.106;2024-02-16T17:00:29;101034.88;;;9.71;81.96
54978;BME280;40873;47.522;19.106;2024-02-16T17:02:59;101037.88;;;9.64;83.01
54978;BME280;40873;47.522;19.106;2024-02-16T17:05:35;101034.75;;;9.55;83.64
54978;BME280;40873;47.522;19.106;2024-02-16T17:08:05;101042.84;;;9.51;84.55
54978;BME280;40873;47.522;19.106;2024-02-16T17:10:41;101043.19;;;9.43;85.32
54978;BME280;40873;47.522;19.106;2024-02-16T17:13:08;101040.03;;;9.35;85.97
54978;BME280;40873;47.522;19.106;2024-02-16T17:15:51;101042.16;;;9.27;86.86
54978;BME280;40873;47.522;19.106;2024-02-16T17:18:21;101049.53;;;9.19;87.53
54978;BME280;40873;47.522;19.106;2024-02-16T17:20:48;101048.22;;;9.09;89.17
54978;BME280;40873;47.522;19.106;2024-02-16T17:23:15;101049.47;;;9.00;89.94
54978;BME280;40873;47.522;19.106;2024-02-16T17:25:45;101053.34;;;8.91;91.00
54978;BME280;40873;47.522;19.106;2024-02-16T17:28:17;101050.91;;;8.87;91.10
54978;BME280;40873;47.522;19.106;2024-02-16T17:30:45;101055.47;;;8.83;92.02
54978;BME280;40873;47.522;19.106;2024-02-16T17:33:13;101053.00;;;8.78;91.97
54978;BME280;40873;47.522;19.106;2024-02-16T17:35:41;101058.19;;;8.80;92.24
54978;BME280;40873;47.522;19.106;2024-02-16T17:38:09;101051.31;;;8.77;91.79
54978;BME280;40873;47.522;19.106;2024-02-16T17:40:40;101058.34;;;8.77;92.34
54978;BME280;40873;47.522;19.106;2024-02-16T17:43:07;101052.34;;;8.73;92.65
54978;BME280;40873;47.522;19.106;2024-02-16T17:45:41;101048.91;;;8.71;92.25
54978;BME280;40873;47.522;19.106;2024-02-16T17:48:09;101056.13;;;8.66;92.71
54978;BME280;40873;47.522;19.106;2024-02-16T17:50:38;101055.41;;;8.63;93.51
54978;BME280;40873;47.522;19.106;2024-02-16T17:53:09;101050.34;;;8.58;93.80
54978;BME280;40873;47.522;19.106;2024-02-16T17:55:36;101054.06;;;8.52;94.68
54978;BME280;40873;47.522;19.106;2024-02-16T17:58:04;101057.75;;;8.48;94.92
54978;BME280;40873;47.522;19.106;2024-02-16T18:00:32;101052.53;;;8.47;94.97
54978;BME280;40873;47.522;19.106;2024-02-16T18:02:59;101059.72;;;8.43;95.52
54978;BME280;40873;47.522;19.106;2024-02-16T18:05:29;101058.25;;;8.36;96.01
54978;BME280;40873;47.522;19.106;2024-02-16T18:07:56;101061.00;;;8.32;97.63
54978;BME280;40873;47.522;19.106;2024-02-16T18:10:23;101050.81;;;8.24;98.10
54978;BME280;40873;47.522;19.106;2024-02-16T18:12:52;101051.09;;;8.16;99.17
54978;BME280;40873;47.522;19.106;2024-02-16T18:15:19;101054.81;;;8.11;99.65
54978;BME280;40873;47.522;19.106;2024-02-16T18:17:48;101063.78;;;8.05;100.00
54978;BME280;40873;47.522;19.106;2024-02-16T18:20:17;101064.88;;;8.00;100.00
54978;BME280;40873;47.522;19.106;2024-02-16T18:22:45;101063.38;;;7.94;100.00
54978;BME280;40873;47.522;19.106;2024-02-16T18:25:12;101066.38;;;7.83;100.00
54978;BME280;40873;47.522;19.106;2024-02-16T18:27:39;101063.91;;;7.79;100.00
54978;BME280;40873;47.522;19.106;2024-02-16T18:30:07;101073.63;;;7.77;100.00
54978;BME280;40873;47.522;19.106;2024-02-16T18:32:34;101072.34;;;7.65;100.00
54978;BME280;40873;47.522;19.106;2024-02-16T18:35:07;101072.59;;;7.57;100.00
54978;BME280;40873;47.522;19.106;2024-02-16T18:37:35;101069.59;;;7.45;100.00
54978;BME280;40873;47.522;19.106;2024-02-16T18:40:04;101075.06;;;7.37;100.00
54978;BME280;40873;47.522;19.106;2024-02-16T18:42:31;101070.28;;;7.25;100.00
54978;BME280;40873;47.522;19.106;2024-02-16T18:44:59;101067.88;;;7.19;100.00
54978;BME280;40873;47.522;19.106;2024-02-16T18:47:39;101068.06;;;7.12;100.00
54978;BME280;40873;47.522;19.106;2024-02-16T18:50:10;101071.94;;;7.02;100.00
54978;BME280;40873;47.522;19.106;2024-02-16T18:52:41;101077.22;;;7.01;100.00
54978;BME280;40873;47.522;19.106;2024-02-16T18:55:09;101084.34;;;6.97;100.00
54978;BME280;40873;47.522;19.106;2024-02-16T18:57:36;101080.03;;;6.95;100.00
54978;BME280;40873;47.522;19.106;2024-02-16T19:00:05;101078.38;;;6.92;100.00
54978;BME280;40873;47.522;19.106;2024-02-16T19:02:35;101082.97;;;6.85;100.00
54978;BME280;40873;47.522;19.106;2024-02-16T19:05:09;101083.94;;;6.83;100.00
54978;BME280;40873;47.522;19.106;2024-02-16T19:07:39;101078.84;;;6.78;100.00
54978;BME280;40873;47.522;19.106;2024-02-16T19:10:06;101081.63;;;6.74;100.00
54978;BME280;40873;47.522;19.106;2024-02-16T19:12:33;101084.34;;;6.71;100.00
54978;BME280;40873;47.522;19.106;2024-02-16T19:15:01;101086.19;;;6.67;100.00
54978;BME280;40873;47.522;19.106;2024-02-16T19:17:32;101083.75;;;6.63;100.00
54978;BME280;40873;47.522;19.106;2024-02-16T19:19:59;101086.63;;;6.55;100.00
54978;BME280;40873;47.522;19.106;2024-02-16T19:22:26;101078.03;;;6.50;100.00
54978;BME280;40873;47.522;19.106;2024-02-16T19:24:56;101085.03;;;6.49;100.00
54978;BME280;40873;47.522;19.106;2024-02-16T19:27:23;101081.50;;;6.50;100.00
54978;BME280;40873;47.522;19.106;2024-02-16T19:29:51;101087.84;;;6.43;100.00
54978;BME280;40873;47.522;19.106;2024-02-16T19:32:20;101089.69;;;6.41;100.00
54978;BME280;40873;47.522;19.106;2024-02-16T19:34:47;101096.72;;;6.39;100.00